Terminal Aerodrome Forecast
Issued by NWS

Home | Current Version | Previous Version | Text Only | Print | Product List | Glossary Off
Versions: 1 2 3 4 5 6 7 8 9 10 11 12 13 14 15 16 17 18 19 20 21 22 23 24

803
FTUS45 KGGW 191142
TAFGDV
TAF
KGDV 191142Z 1912/2012 23008KT P6SM FEW200
     FM191400 27009KT P6SM FEW190
     FM191600 29013G21KT P6SM FEW210
     FM192300 33016KT P6SM FEW180
     FM200300 36009KT P6SM FEW160=

USA.gov is the U.S. government's official web portal to all federal, state and local government web resources and services.